createdAt,value
2017-09-17T00:00:20.238Z,9.60
2017-09-17T00:02:47.725Z,9.60
2017-09-17T00:05:15.224Z,9.60
2017-09-17T00:07:42.723Z,9.50
2017-09-17T00:10:10.201Z,9.50
2017-09-17T00:12:37.682Z,9.60
2017-09-17T00:15:05.941Z,9.50
2017-09-17T00:17:33.411Z,9.50
2017-09-17T00:20:00.910Z,9.50
2017-09-17T00:22:28.381Z,9.50
2017-09-17T00:24:55.863Z,9.50
2017-09-17T00:27:23.347Z,9.50
2017-09-17T00:29:50.845Z,9.40
2017-09-17T00:32:18.333Z,9.40
2017-09-17T00:34:45.829Z,9.50
2017-09-17T00:37:14.090Z,9.40
2017-09-17T00:39:41.579Z,9.40
2017-09-17T00:42:09.072Z,9.50
2017-09-17T00:44:36.562Z,9.60
2017-09-17T00:47:04.035Z,9.60
2017-09-17T00:49:32.281Z,9.50
2017-09-17T00:52:00.590Z,9.50
2017-09-17T00:54:28.855Z,9.50
2017-09-17T00:56:57.081Z,9.50
2017-09-17T00:59:24.574Z,9.50
2017-09-17T01:01:52.062Z,9.60
2017-09-17T01:04:19.557Z,9.70
2017-09-17T01:06:47.786Z,9.70
2017-09-17T01:09:16.031Z,9.50
2017-09-17T01:11:43.509Z,9.50
2017-09-17T01:14:11.030Z,9.60
2017-09-17T01:16:38.517Z,9.60
2017-09-17T01:19:06.017Z,9.60
2017-09-17T01:21:33.500Z,9.60
2017-09-17T01:24:00.987Z,9.60
2017-09-17T01:26:28.465Z,9.70
2017-09-17T01:28:55.948Z,9.60
2017-09-17T01:31:23.423Z,9.60
2017-09-17T01:33:50.918Z,9.70
2017-09-17T01:36:18.391Z,9.70
2017-09-17T01:38:45.874Z,9.70
2017-09-17T01:41:13.378Z,9.70
2017-09-17T01:43:40.867Z,9.70
2017-09-17T01:46:08.360Z,9.70
2017-09-17T01:48:35.831Z,9.70
2017-09-17T01:51:03.325Z,9.60
2017-09-17T01:53:30.806Z,9.60
2017-09-17T01:55:59.040Z,9.50
2017-09-17T01:58:26.525Z,9.50
2017-09-17T02:00:54.020Z,9.40
2017-09-17T02:03:21.514Z,9.50
2017-09-17T02:05:49.004Z,9.40
2017-09-17T02:08:16.480Z,9.40
2017-09-17T02:10:50.388Z,9.30
2017-09-17T02:13:18.624Z,9.30
2017-09-17T02:15:46.108Z,9.30
2017-09-17T02:18:13.604Z,9.40
2017-09-17T02:20:41.110Z,9.30
2017-09-17T02:23:08.590Z,9.30
2017-09-17T02:25:36.829Z,9.20
2017-09-17T02:28:04.321Z,9.20
2017-09-17T02:30:32.587Z,9.10
2017-09-17T02:33:00.073Z,9.10
2017-09-17T02:35:27.586Z,9.10
2017-09-17T02:37:55.067Z,9.10
2017-09-17T02:40:23.306Z,9.10
2017-09-17T02:42:50.785Z,9.10
2017-09-17T02:45:18.261Z,9.10
2017-09-17T02:47:46.533Z,9.00
2017-09-17T02:50:14.022Z,9.00
2017-09-17T02:52:41.517Z,8.90
2017-09-17T02:55:08.988Z,8.90
2017-09-17T02:57:36.484Z,8.90
2017-09-17T03:00:04.734Z,8.70
2017-09-17T03:02:32.208Z,8.70
2017-09-17T03:04:59.728Z,8.70
2017-09-17T03:07:27.211Z,8.80
2017-09-17T03:09:54.685Z,8.80
2017-09-17T03:12:22.942Z,8.90
2017-09-17T03:14:51.182Z,8.80
2017-09-17T03:17:18.736Z,8.80
2017-09-17T03:19:46.211Z,8.70
2017-09-17T03:22:13.698Z,8.80
2017-09-17T03:24:41.962Z,8.70
2017-09-17T03:27:09.437Z,8.70
2017-09-17T03:29:37.685Z,8.80
2017-09-17T03:32:05.168Z,8.80
2017-09-17T03:34:32.650Z,8.80
2017-09-17T03:37:00.124Z,8.70
2017-09-17T03:39:27.618Z,8.70
2017-09-17T03:41:55.106Z,8.60
2017-09-17T03:44:23.365Z,8.70
2017-09-17T03:46:50.845Z,8.70
2017-09-17T03:49:19.129Z,8.70
2017-09-17T03:51:46.606Z,8.70
2017-09-17T03:54:15.020Z,8.60
2017-09-17T03:56:42.496Z,8.50
2017-09-17T03:59:09.982Z,8.30
2017-09-17T04:01:37.464Z,8.30
2017-09-17T04:04:04.949Z,8.30
2017-09-17T04:06:32.435Z,8.50
2017-09-17T04:09:00.690Z,8.40
2017-09-17T04:11:28.164Z,8.30
2017-09-17T04:13:55.655Z,8.30
2017-09-17T04:16:23.148Z,8.20
2017-09-17T04:18:50.622Z,8.20
2017-09-17T04:21:18.116Z,8.40
2017-09-17T04:23:46.378Z,8.50
2017-09-17T04:26:14.638Z,8.30
2017-09-17T04:28:43.618Z,8.40
2017-09-17T04:31:11.134Z,8.40
2017-09-17T04:33:38.618Z,8.50
2017-09-17T04:36:06.109Z,8.40
2017-09-17T04:38:33.582Z,8.40
2017-09-17T04:41:01.846Z,8.10
2017-09-17T04:43:29.329Z,8.10
2017-09-17T04:45:57.598Z,8.00
2017-09-17T04:48:25.850Z,7.90
2017-09-17T04:50:53.346Z,8.00
2017-09-17T04:53:20.829Z,7.90
2017-09-17T04:55:48.313Z,8.00
2017-09-17T04:58:15.810Z,8.10
2017-09-17T05:00:44.071Z,8.20
2017-09-17T05:03:11.533Z,8.20
2017-09-17T05:05:39.797Z,8.00
2017-09-17T05:08:07.276Z,7.90
2017-09-17T05:10:36.872Z,8.00
2017-09-17T05:13:04.430Z,8.00
2017-09-17T05:15:31.934Z,8.00
2017-09-17T05:17:59.421Z,8.20
2017-09-17T05:20:26.911Z,8.20
2017-09-17T05:22:55.155Z,8.20
2017-09-17T05:25:22.638Z,8.20
2017-09-17T05:27:50.121Z,8.20
2017-09-17T05:30:17.599Z,8.10
2017-09-17T05:32:45.087Z,7.70
2017-09-17T05:35:12.583Z,7.60
2017-09-17T05:37:40.829Z,8.00
2017-09-17T05:40:08.294Z,8.00
2017-09-17T05:42:35.845Z,8.20
2017-09-17T05:45:03.328Z,8.40
2017-09-17T05:47:31.575Z,8.50
2017-09-17T05:49:59.053Z,8.50
2017-09-17T05:52:27.309Z,8.60
2017-09-17T05:54:55.611Z,8.60
2017-09-17T05:57:23.860Z,8.90
2017-09-17T05:59:51.337Z,8.90
2017-09-17T06:02:18.826Z,8.60
2017-09-17T06:04:46.325Z,8.70
2017-09-17T06:07:13.838Z,8.80
2017-09-17T06:09:42.085Z,8.80
2017-09-17T06:12:09.568Z,8.80
2017-09-17T06:14:37.045Z,8.70
2017-09-17T06:17:04.542Z,8.50
2017-09-17T06:19:32.036Z,8.60
2017-09-17T06:22:00.297Z,8.70
2017-09-17T06:24:27.773Z,8.70
2017-09-17T06:26:56.015Z,8.90
2017-09-17T06:29:23.503Z,8.90
2017-09-17T06:31:50.991Z,9.00
2017-09-17T06:34:18.474Z,9.10
2017-09-17T06:36:45.942Z,9.10
2017-09-17T06:39:13.430Z,9.20
2017-09-17T06:41:41.682Z,9.20
2017-09-17T06:44:09.187Z,9.20
2017-09-17T06:46:36.669Z,9.20
2017-09-17T06:49:04.173Z,9.10
2017-09-17T06:51:32.403Z,9.40
2017-09-17T06:53:59.882Z,9.40
2017-09-17T06:56:27.370Z,9.40
2017-09-17T06:58:55.613Z,9.50
2017-09-17T07:01:24.599Z,9.60
2017-09-17T07:03:52.090Z,9.50
2017-09-17T07:06:19.567Z,9.70
2017-09-17T07:08:47.845Z,9.80
2017-09-17T07:11:15.345Z,9.80
2017-09-17T07:13:42.820Z,9.80
2017-09-17T07:16:10.306Z,9.90
2017-09-17T07:18:38.567Z,10.00
2017-09-17T07:21:06.034Z,10.00
2017-09-17T07:23:34.295Z,10.20
2017-09-17T07:26:01.772Z,10.20
2017-09-17T07:28:30.021Z,10.40
2017-09-17T07:30:57.513Z,10.30
2017-09-17T07:33:25.788Z,10.50
2017-09-17T07:35:54.033Z,10.60
2017-09-17T07:38:21.510Z,10.60
2017-09-17T07:40:49.758Z,10.60
2017-09-17T07:43:17.231Z,10.50
2017-09-17T07:45:44.719Z,10.60
2017-09-17T07:48:12.950Z,10.80
2017-09-17T07:50:40.445Z,10.80
2017-09-17T07:53:08.695Z,11.00
2017-09-17T07:55:36.177Z,11.00
2017-09-17T07:58:04.416Z,11.00
2017-09-17T08:00:31.914Z,11.00
2017-09-17T08:03:00.175Z,11.20
2017-09-17T08:05:27.659Z,11.20
2017-09-17T08:07:55.132Z,11.10
2017-09-17T08:10:22.623Z,11.20
2017-09-17T08:12:50.117Z,11.20
2017-09-17T08:15:18.369Z,11.60
2017-09-17T08:17:45.867Z,11.60
2017-09-17T08:20:13.374Z,11.50
2017-09-17T08:22:40.851Z,11.70
2017-09-17T08:25:08.359Z,11.90
2017-09-17T08:27:35.841Z,12.00
2017-09-17T08:30:03.340Z,12.10
2017-09-17T08:32:31.581Z,12.20
2017-09-17T08:34:59.078Z,12.10
2017-09-17T08:37:27.332Z,12.30
2017-09-17T08:39:54.840Z,12.30
2017-09-17T08:42:22.352Z,12.40
2017-09-17T08:44:50.614Z,12.40
2017-09-17T08:47:18.109Z,12.30
2017-09-17T08:49:46.378Z,12.30
2017-09-17T08:52:14.663Z,12.60
2017-09-17T08:54:42.899Z,12.80
2017-09-17T08:57:10.395Z,12.70
2017-09-17T08:59:38.630Z,12.70
2017-09-17T09:02:06.136Z,12.70
2017-09-17T09:04:33.631Z,12.70
2017-09-17T09:07:01.125Z,12.60
2017-09-17T09:09:28.609Z,13.00
2017-09-17T09:11:56.099Z,13.30
2017-09-17T09:14:34.385Z,13.40
2017-09-17T09:17:01.873Z,13.30
2017-09-17T09:19:29.349Z,13.40
2017-09-17T09:21:56.841Z,13.40
2017-09-17T09:24:25.101Z,13.70
2017-09-17T09:26:52.606Z,13.70
2017-09-17T09:29:20.099Z,13.90
2017-09-17T09:31:47.583Z,13.90
2017-09-17T09:34:15.830Z,14.20
2017-09-17T09:36:43.324Z,14.20
2017-09-17T09:39:12.261Z,14.30
2017-09-17T09:41:39.740Z,14.30
2017-09-17T09:44:07.239Z,14.20
2017-09-17T09:46:35.488Z,14.40
2017-09-17T09:49:03.750Z,14.30
2017-09-17T09:51:31.229Z,14.30
2017-09-17T09:53:58.713Z,14.00
2017-09-17T09:56:26.210Z,14.00
2017-09-17T09:58:53.694Z,14.10
2017-09-17T10:01:21.168Z,14.10
2017-09-17T10:03:49.416Z,13.90
2017-09-17T10:06:17.551Z,13.90
2017-09-17T10:08:45.061Z,14.10
2017-09-17T10:11:14.254Z,13.70
2017-09-17T10:13:41.727Z,13.60
2017-09-17T10:19:00.529Z,13.80
2017-09-17T10:21:28.026Z,14.20
2017-09-17T10:23:55.505Z,14.20
2017-09-17T10:26:23.770Z,14.30
2017-09-17T10:28:51.254Z,14.30
2017-09-17T10:31:19.516Z,14.70
2017-09-17T10:33:46.986Z,14.70
2017-09-17T10:36:15.638Z,14.90
2017-09-17T10:38:43.111Z,14.80
2017-09-17T10:41:10.607Z,14.90
2017-09-17T10:43:38.129Z,15.10
2017-09-17T10:46:05.624Z,15.30
2017-09-17T10:48:33.120Z,15.40
2017-09-17T10:51:00.634Z,15.00
2017-09-17T10:53:28.878Z,15.30
2017-09-17T10:55:57.865Z,15.10
2017-09-17T10:58:25.372Z,15.10
2017-09-17T11:00:52.852Z,15.20
2017-09-17T11:03:20.346Z,15.50
2017-09-17T11:05:47.827Z,15.60
2017-09-17T11:08:16.084Z,15.50
2017-09-17T11:10:43.584Z,15.50
2017-09-17T11:13:11.997Z,15.60
2017-09-17T11:15:39.495Z,15.70
2017-09-17T11:18:07.755Z,15.60
2017-09-17T11:20:35.245Z,15.60
2017-09-17T11:23:03.498Z,15.90
2017-09-17T11:25:31.770Z,15.70
2017-09-17T11:27:59.270Z,15.70
2017-09-17T11:30:26.769Z,16.00
2017-09-17T11:32:54.258Z,16.20
2017-09-17T11:35:23.393Z,15.80
2017-09-17T11:37:50.880Z,15.80
2017-09-17T11:40:18.372Z,15.80
2017-09-17T11:42:46.626Z,15.60
2017-09-17T11:45:14.113Z,15.60
2017-09-17T11:47:42.380Z,15.50
2017-09-17T11:50:10.634Z,15.50
2017-09-17T11:52:38.115Z,15.50
2017-09-17T11:55:06.378Z,15.10
2017-09-17T11:57:33.860Z,15.00
2017-09-17T12:00:02.112Z,14.60
2017-09-17T12:02:29.583Z,14.60
2017-09-17T12:04:57.847Z,14.60
2017-09-17T12:07:25.336Z,14.60
2017-09-17T12:09:52.834Z,14.90
2017-09-17T12:12:20.324Z,14.70
2017-09-17T12:14:47.812Z,14.60
2017-09-17T12:17:15.315Z,14.50
2017-09-17T12:19:42.805Z,14.60
2017-09-17T12:22:11.046Z,14.40
2017-09-17T12:24:38.530Z,14.30
2017-09-17T12:27:06.011Z,14.40
2017-09-17T12:29:34.256Z,14.40
2017-09-17T12:32:01.751Z,14.30
2017-09-17T12:34:29.228Z,14.40
2017-09-17T12:36:56.730Z,14.40
2017-09-17T12:39:24.216Z,14.40
2017-09-17T12:41:51.714Z,14.40
2017-09-17T12:44:19.187Z,14.70
2017-09-17T12:46:46.684Z,14.80
2017-09-17T12:49:14.941Z,14.90
2017-09-17T12:51:42.444Z,14.90
2017-09-17T12:54:09.927Z,15.10
2017-09-17T12:56:37.488Z,15.00
2017-09-17T12:59:04.972Z,15.10
2017-09-17T13:01:32.459Z,14.90
2017-09-17T13:06:55.003Z,15.10
2017-09-17T13:09:23.260Z,15.00
2017-09-17T13:11:50.747Z,15.10
2017-09-17T13:14:18.989Z,15.30
2017-09-17T13:16:46.467Z,15.30
2017-09-17T13:19:13.944Z,15.40
2017-09-17T13:21:42.196Z,15.50
2017-09-17T13:24:10.459Z,15.60
2017-09-17T13:26:37.952Z,15.50
2017-09-17T13:29:05.433Z,15.80
2017-09-17T13:31:33.437Z,15.70
2017-09-17T13:34:00.920Z,15.80
2017-09-17T13:36:28.402Z,16.00
2017-09-17T13:38:56.662Z,15.80
2017-09-17T13:41:24.902Z,15.60
2017-09-17T13:43:52.399Z,15.50
2017-09-17T13:46:19.880Z,15.60
2017-09-17T13:48:47.384Z,15.50
2017-09-17T13:51:14.883Z,15.50
2017-09-17T13:53:43.129Z,15.40
2017-09-17T13:56:10.660Z,15.40
2017-09-17T13:58:38.147Z,15.40
2017-09-17T14:01:13.108Z,15.40
2017-09-17T14:17:04.634Z,14.90
2017-09-17T14:19:32.122Z,15.00
2017-09-17T14:21:59.597Z,15.00
2017-09-17T14:24:27.083Z,15.00
2017-09-17T14:26:55.367Z,14.90
2017-09-17T14:29:23.614Z,14.80
2017-09-17T14:31:51.083Z,14.80
2017-09-17T14:34:18.589Z,14.70
2017-09-17T14:36:46.067Z,14.70
2017-09-17T14:39:13.562Z,14.60
2017-09-17T14:41:41.820Z,14.60
2017-09-17T14:44:09.402Z,14.60
2017-09-17T14:46:37.673Z,14.40
2017-09-17T14:49:05.909Z,14.40
2017-09-17T14:51:33.426Z,14.30
2017-09-17T14:54:01.670Z,14.30
2017-09-17T14:56:29.154Z,14.30
2017-09-17T14:58:57.403Z,14.30
2017-09-17T15:01:24.895Z,14.40
2017-09-17T15:03:52.377Z,14.30
2017-09-17T15:06:19.867Z,14.30
2017-09-17T15:08:47.359Z,14.40
2017-09-17T15:11:15.608Z,14.40
2017-09-17T15:13:43.095Z,14.40
2017-09-17T15:16:11.356Z,14.20
2017-09-17T15:18:39.609Z,14.10
2017-09-17T15:21:07.126Z,14.10
2017-09-17T15:23:34.617Z,13.90
2017-09-17T15:26:02.122Z,13.70
2017-09-17T15:28:30.385Z,13.50
2017-09-17T15:30:57.859Z,13.50
2017-09-17T15:33:25.340Z,13.50
2017-09-17T15:35:52.825Z,13.40
2017-09-17T15:38:20.313Z,13.20
2017-09-17T15:40:48.552Z,13.10
2017-09-17T15:43:16.051Z,13.10
2017-09-17T15:45:44.313Z,12.90
2017-09-17T15:48:11.805Z,12.90
2017-09-17T15:50:40.035Z,12.90
2017-09-17T15:53:07.525Z,12.90
2017-09-17T15:55:35.002Z,12.80
2017-09-17T15:58:02.496Z,12.70
2017-09-17T16:00:29.980Z,12.80
2017-09-17T16:02:57.470Z,12.70
2017-09-17T16:05:24.959Z,12.60
2017-09-17T16:07:52.442Z,12.60
2017-09-17T16:10:19.926Z,12.50
2017-09-17T16:12:48.186Z,12.40
2017-09-17T16:15:15.677Z,12.40
2017-09-17T16:17:43.179Z,12.30
2017-09-17T16:20:10.670Z,12.30
2017-09-17T16:22:38.149Z,12.30
2017-09-17T16:25:05.643Z,12.30
2017-09-17T16:27:33.159Z,12.20
2017-09-17T16:30:01.404Z,12.00
2017-09-17T16:32:28.883Z,12.10
2017-09-17T16:34:57.127Z,12.00
2017-09-17T16:37:24.601Z,12.00
2017-09-17T16:39:52.106Z,12.20
2017-09-17T16:42:19.575Z,12.00
2017-09-17T16:44:47.068Z,12.00
2017-09-17T16:47:14.574Z,12.00
2017-09-17T16:49:42.067Z,11.90
2017-09-17T16:52:09.553Z,12.00
2017-09-17T16:54:37.042Z,11.90
2017-09-17T16:57:04.524Z,11.90
2017-09-17T16:59:32.027Z,11.90
2017-09-17T17:01:59.498Z,11.80
2017-09-17T17:04:27.792Z,11.70
2017-09-17T17:06:55.275Z,11.70
2017-09-17T17:09:22.770Z,11.80
2017-09-17T17:11:50.233Z,11.80
2017-09-17T17:14:18.505Z,11.70
2017-09-17T17:16:45.987Z,11.70
2017-09-17T17:19:14.250Z,11.50
2017-09-17T17:21:41.726Z,11.50
2017-09-17T17:24:09.216Z,11.40
2017-09-17T17:26:36.706Z,11.40
2017-09-17T17:29:04.970Z,11.30
2017-09-17T17:31:32.454Z,11.30
2017-09-17T17:33:59.957Z,11.40
2017-09-17T17:36:27.433Z,11.20
2017-09-17T17:38:54.917Z,11.20
2017-09-17T17:41:23.896Z,11.00
2017-09-17T17:43:51.409Z,11.00
2017-09-17T17:46:18.893Z,11.00
2017-09-17T17:48:46.374Z,11.20
2017-09-17T17:51:13.870Z,11.00
2017-09-17T17:53:42.141Z,11.10
2017-09-17T17:56:10.393Z,11.10
2017-09-17T17:58:37.883Z,11.10
2017-09-17T18:01:06.167Z,11.00
2017-09-17T18:03:33.632Z,11.00
2017-09-17T18:06:01.127Z,11.00
2017-09-17T18:08:28.612Z,11.00
2017-09-17T18:10:56.099Z,11.00
2017-09-17T18:13:24.331Z,11.00
2017-09-17T18:15:51.815Z,10.90
2017-09-17T18:18:20.079Z,11.00
2017-09-17T18:20:49.084Z,11.00
2017-09-17T18:23:17.334Z,11.10
2017-09-17T18:25:44.817Z,11.10
2017-09-17T18:28:13.069Z,11.10
2017-09-17T18:30:40.566Z,11.10
2017-09-17T18:33:08.063Z,11.10
2017-09-17T18:35:35.550Z,11.20
2017-09-17T18:38:03.045Z,11.10
2017-09-17T18:40:30.534Z,11.10
2017-09-17T18:42:58.018Z,11.10
2017-09-17T18:45:25.513Z,11.10
2017-09-17T18:47:53.758Z,11.20
2017-09-17T18:50:27.766Z,11.30
2017-09-17T18:52:55.260Z,11.20
2017-09-17T18:55:22.779Z,11.30
2017-09-17T18:57:50.271Z,11.20
2017-09-17T19:00:18.513Z,11.20
2017-09-17T19:02:46.004Z,11.20
2017-09-17T19:05:14.239Z,11.20
2017-09-17T19:07:41.742Z,11.10
2017-09-17T19:10:10.059Z,11.00
2017-09-17T19:12:38.091Z,11.00
2017-09-17T19:15:06.332Z,11.10
2017-09-17T19:17:33.837Z,11.00
2017-09-17T19:20:01.318Z,11.10
2017-09-17T19:22:28.816Z,11.10
2017-09-17T19:24:56.386Z,11.00
2017-09-17T19:27:24.646Z,11.10
2017-09-17T19:29:52.901Z,11.10
2017-09-17T19:32:20.392Z,11.10
2017-09-17T19:34:48.646Z,11.10
2017-09-17T19:37:16.162Z,11.00
2017-09-17T19:39:44.894Z,11.10
2017-09-17T19:42:12.390Z,11.10
2017-09-17T19:44:40.621Z,11.10
2017-09-17T19:47:08.111Z,11.10
2017-09-17T19:49:36.353Z,11.20
2017-09-17T19:52:03.827Z,11.20
2017-09-17T19:54:31.327Z,11.20
2017-09-17T19:56:58.796Z,11.20
2017-09-17T19:59:26.284Z,11.20
2017-09-17T20:01:53.770Z,11.10
2017-09-17T20:04:22.028Z,11.10
2017-09-17T20:06:49.525Z,11.10
2017-09-17T20:09:17.009Z,11.10
2017-09-17T20:11:44.488Z,11.10
2017-09-17T20:14:11.980Z,11.10
2017-09-17T20:16:40.241Z,11.10
2017-09-17T20:19:07.728Z,11.10
2017-09-17T20:21:35.980Z,11.00
2017-09-17T20:24:03.466Z,11.00
2017-09-17T20:26:30.938Z,11.10
2017-09-17T20:28:58.459Z,11.10
2017-09-17T20:31:25.961Z,11.10
2017-09-17T20:33:53.456Z,11.10
2017-09-17T20:36:20.932Z,11.10
2017-09-17T20:38:48.424Z,11.10
2017-09-17T20:41:15.920Z,11.10
2017-09-17T20:43:43.417Z,11.10
2017-09-17T20:46:11.661Z,11.10
2017-09-17T20:48:39.156Z,11.10
2017-09-17T20:51:07.397Z,11.10
2017-09-17T20:53:34.910Z,11.10
2017-09-17T20:56:02.412Z,11.10
2017-09-17T20:58:30.713Z,11.10
2017-09-17T21:00:58.180Z,11.10
2017-09-17T21:03:26.418Z,11.00
2017-09-17T21:06:01.267Z,11.00
2017-09-17T21:08:28.738Z,11.00
2017-09-17T21:10:56.994Z,11.00
2017-09-17T21:13:24.489Z,11.00
2017-09-17T21:15:52.012Z,11.10
2017-09-17T21:18:19.490Z,11.00
2017-09-17T21:20:47.752Z,11.00
2017-09-17T21:23:15.232Z,10.90
2017-09-17T21:25:43.518Z,11.00
2017-09-17T21:28:10.982Z,11.00
2017-09-17T21:30:38.463Z,11.10
2017-09-17T21:33:05.945Z,11.00
2017-09-17T21:35:33.484Z,11.00
2017-09-17T21:38:00.955Z,11.00
2017-09-17T21:40:28.438Z,11.10
2017-09-17T21:42:55.929Z,11.10
2017-09-17T21:45:23.417Z,10.90
2017-09-17T21:47:50.906Z,10.90
2017-09-17T21:50:18.395Z,10.80
2017-09-17T21:52:45.872Z,10.80
2017-09-17T21:55:13.368Z,10.80
2017-09-17T21:57:40.845Z,10.90
2017-09-17T22:00:08.324Z,10.90
2017-09-17T22:02:36.573Z,10.80
2017-09-17T22:05:10.408Z,10.80
2017-09-17T22:07:37.893Z,10.80
2017-09-17T22:10:05.429Z,10.90
2017-09-17T22:12:32.909Z,10.80
2017-09-17T22:15:00.388Z,10.90
2017-09-17T22:17:27.872Z,10.70
2017-09-17T22:19:56.278Z,10.70
2017-09-17T22:22:23.784Z,10.60
2017-09-17T22:24:51.267Z,10.70
2017-09-17T22:27:18.754Z,10.70
2017-09-17T22:29:46.244Z,10.70
2017-09-17T22:32:13.876Z,10.70
2017-09-17T22:34:41.365Z,10.60
2017-09-17T22:37:08.854Z,10.60
2017-09-17T22:39:37.838Z,10.60
2017-09-17T22:42:06.261Z,10.60
2017-09-17T22:44:33.733Z,10.50
2017-09-17T22:47:01.231Z,10.60
2017-09-17T22:49:28.717Z,10.50
2017-09-17T22:51:56.965Z,10.50
2017-09-17T22:54:31.990Z,10.50
2017-09-17T22:56:59.483Z,10.50
2017-09-17T22:59:27.730Z,10.50
2017-09-17T23:01:55.230Z,10.50
2017-09-17T23:04:23.474Z,10.60
2017-09-17T23:06:50.969Z,10.60
2017-09-17T23:09:19.205Z,10.30
2017-09-17T23:11:46.707Z,10.30
2017-09-17T23:14:14.193Z,10.30
2017-09-17T23:16:41.698Z,10.40
2017-09-17T23:19:10.723Z,10.20
2017-09-17T23:21:38.226Z,10.20
2017-09-17T23:24:05.717Z,10.20
2017-09-17T23:26:33.972Z,10.30
2017-09-17T23:29:01.446Z,10.30
2017-09-17T23:31:29.701Z,10.40
2017-09-17T23:33:57.195Z,10.40
2017-09-17T23:36:24.697Z,10.30
2017-09-17T23:38:52.178Z,10.40
2017-09-17T23:41:19.686Z,10.30
2017-09-17T23:43:47.157Z,10.30
2017-09-17T23:46:14.631Z,10.30
2017-09-17T23:48:42.110Z,10.40
2017-09-17T23:51:11.103Z,10.40
2017-09-17T23:53:44.406Z,10.40
2017-09-17T23:56:11.878Z,10.40
2017-09-17T23:58:40.125Z,10.50
